sensor_id;sensor_type;location;lat;lon;timestamp;P1;durP1;ratioP1;P2;durP2;ratioP2
47603;SDS011;33326;51.116;6.900;2022-09-21T00:03:50;10.55;;;5.03;;
47603;SDS011;33326;51.116;6.900;2022-09-21T00:08:53;8.38;;;4.22;;
47603;SDS011;33326;51.116;6.900;2022-09-21T00:13:59;6.00;;;3.75;;
47603;SDS011;33326;51.116;6.900;2022-09-21T00:19:03;7.75;;;4.57;;
47603;SDS011;33326;51.116;6.900;2022-09-21T00:24:05;11.27;;;4.40;;
47603;SDS011;33326;51.116;6.900;2022-09-21T00:29:09;9.65;;;4.95;;
47603;SDS011;33326;51.116;6.900;2022-09-21T00:34:13;8.95;;;4.68;;
47603;SDS011;33326;51.116;6.900;2022-09-21T00:39:15;8.45;;;4.72;;
47603;SDS011;33326;51.116;6.900;2022-09-21T00:49:41;7.60;;;4.90;;
47603;SDS011;33326;51.116;6.900;2022-09-21T00:54:48;8.90;;;4.80;;
47603;SDS011;33326;51.116;6.900;2022-09-21T00:59:54;9.07;;;4.60;;
47603;SDS011;33326;51.116;6.900;2022-09-21T01:04:58;8.35;;;4.90;;
47603;SDS011;33326;51.116;6.900;2022-09-21T01:10:03;9.23;;;5.00;;
47603;SDS011;33326;51.116;6.900;2022-09-21T01:15:14;8.95;;;4.88;;
47603;SDS011;33326;51.116;6.900;2022-09-21T01:20:40;8.77;;;4.60;;
47603;SDS011;33326;51.116;6.900;2022-09-21T01:26:11;8.45;;;4.90;;
47603;SDS011;33326;51.116;6.900;2022-09-21T01:31:24;15.02;;;5.30;;
47603;SDS011;33326;51.116;6.900;2022-09-21T01:36:32;8.43;;;5.10;;
47603;SDS011;33326;51.116;6.900;2022-09-21T01:41:35;7.40;;;4.28;;
47603;SDS011;33326;51.116;6.900;2022-09-21T01:46:41;9.38;;;4.43;;
47603;SDS011;33326;51.116;6.900;2022-09-21T01:51:47;10.60;;;4.47;;
47603;SDS011;33326;51.116;6.900;2022-09-21T01:56:54;7.55;;;3.92;;
47603;SDS011;33326;51.116;6.900;2022-09-21T02:02:05;7.70;;;3.83;;
47603;SDS011;33326;51.116;6.900;2022-09-21T02:07:12;7.85;;;3.80;;
47603;SDS011;33326;51.116;6.900;2022-09-21T02:12:16;8.48;;;4.07;;
47603;SDS011;33326;51.116;6.900;2022-09-21T02:17:24;7.10;;;3.55;;
47603;SDS011;33326;51.116;6.900;2022-09-21T02:22:37;9.35;;;4.13;;
47603;SDS011;33326;51.116;6.900;2022-09-21T02:27:49;8.85;;;3.70;;
47603;SDS011;33326;51.116;6.900;2022-09-21T02:32:56;12.45;;;4.55;;
47603;SDS011;33326;51.116;6.900;2022-09-21T02:38:06;9.90;;;3.80;;
47603;SDS011;33326;51.116;6.900;2022-09-21T02:43:13;7.13;;;3.15;;
47603;SDS011;33326;51.116;6.900;2022-09-21T02:48:24;7.10;;;3.30;;
47603;SDS011;33326;51.116;6.900;2022-09-21T02:53:32;5.78;;;3.30;;
47603;SDS011;33326;51.116;6.900;2022-09-21T02:58:37;6.97;;;3.45;;
47603;SDS011;33326;51.116;6.900;2022-09-21T03:03:42;7.80;;;3.15;;
47603;SDS011;33326;51.116;6.900;2022-09-21T03:08:44;9.85;;;3.60;;
47603;SDS011;33326;51.116;6.900;2022-09-21T03:13:46;6.65;;;3.67;;
47603;SDS011;33326;51.116;6.900;2022-09-21T03:18:49;7.75;;;3.40;;
47603;SDS011;33326;51.116;6.900;2022-09-21T03:23:51;9.55;;;3.63;;
47603;SDS011;33326;51.116;6.900;2022-09-21T03:28:53;7.78;;;3.50;;
47603;SDS011;33326;51.116;6.900;2022-09-21T03:33:57;10.38;;;3.88;;
47603;SDS011;33326;51.116;6.900;2022-09-21T03:38:59;9.57;;;3.80;;
47603;SDS011;33326;51.116;6.900;2022-09-21T03:44:01;7.43;;;3.80;;
47603;SDS011;33326;51.116;6.900;2022-09-21T03:49:04;6.00;;;3.72;;
47603;SDS011;33326;51.116;6.900;2022-09-21T03:54:06;10.23;;;4.10;;
47603;SDS011;33326;51.116;6.900;2022-09-21T03:59:08;8.18;;;3.70;;
47603;SDS011;33326;51.116;6.900;2022-09-21T04:04:11;8.77;;;3.60;;
47603;SDS011;33326;51.116;6.900;2022-09-21T04:09:13;9.45;;;4.18;;
47603;SDS011;33326;51.116;6.900;2022-09-21T04:14:15;9.05;;;4.13;;
47603;SDS011;33326;51.116;6.900;2022-09-21T04:19:19;8.57;;;3.72;;
47603;SDS011;33326;51.116;6.900;2022-09-21T04:24:21;5.63;;;3.78;;
47603;SDS011;33326;51.116;6.900;2022-09-21T04:29:23;7.72;;;3.70;;
47603;SDS011;33326;51.116;6.900;2022-09-21T04:34:26;6.75;;;3.67;;
47603;SDS011;33326;51.116;6.900;2022-09-21T04:39:30;7.80;;;3.78;;
47603;SDS011;33326;51.116;6.900;2022-09-21T04:44:32;7.25;;;3.80;;
47603;SDS011;33326;51.116;6.900;2022-09-21T04:49:35;11.25;;;3.53;;
47603;SDS011;33326;51.116;6.900;2022-09-21T04:54:37;6.30;;;3.72;;
47603;SDS011;33326;51.116;6.900;2022-09-21T04:59:39;5.38;;;3.28;;
47603;SDS011;33326;51.116;6.900;2022-09-21T05:04:42;7.90;;;3.70;;
47603;SDS011;33326;51.116;6.900;2022-09-21T05:09:44;7.80;;;3.47;;
47603;SDS011;33326;51.116;6.900;2022-09-21T05:15:04;8.30;;;3.92;;
47603;SDS011;33326;51.116;6.900;2022-09-21T05:20:08;8.35;;;3.67;;
47603;SDS011;33326;51.116;6.900;2022-09-21T05:25:11;7.32;;;4.00;;
47603;SDS011;33326;51.116;6.900;2022-09-21T05:30:13;9.30;;;3.88;;
47603;SDS011;33326;51.116;6.900;2022-09-21T05:35:21;11.82;;;3.92;;
47603;SDS011;33326;51.116;6.900;2022-09-21T05:40:30;7.70;;;3.60;;
47603;SDS011;33326;51.116;6.900;2022-09-21T05:45:33;9.55;;;4.03;;
47603;SDS011;33326;51.116;6.900;2022-09-21T05:56:11;7.60;;;4.05;;
47603;SDS011;33326;51.116;6.900;2022-09-21T06:01:43;11.05;;;4.47;;
47603;SDS011;33326;51.116;6.900;2022-09-21T06:13:06;8.38;;;4.13;;
47603;SDS011;33326;51.116;6.900;2022-09-21T06:18:08;10.02;;;4.93;;
47603;SDS011;33326;51.116;6.900;2022-09-21T06:33:46;9.23;;;5.05;;
47603;SDS011;33326;51.116;6.900;2022-09-21T06:38:48;15.43;;;5.35;;
47603;SDS011;33326;51.116;6.900;2022-09-21T06:43:52;8.48;;;4.05;;
47603;SDS011;33326;51.116;6.900;2022-09-21T06:48:57;10.90;;;5.25;;
47603;SDS011;33326;51.116;6.900;2022-09-21T06:53:59;10.18;;;5.45;;
47603;SDS011;33326;51.116;6.900;2022-09-21T06:59:02;12.88;;;6.20;;
47603;SDS011;33326;51.116;6.900;2022-09-21T07:04:09;11.30;;;6.57;;
47603;SDS011;33326;51.116;6.900;2022-09-21T07:09:13;11.10;;;6.78;;
47603;SDS011;33326;51.116;6.900;2022-09-21T07:14:14;17.73;;;8.05;;
47603;SDS011;33326;51.116;6.900;2022-09-21T07:19:18;13.13;;;7.55;;
47603;SDS011;33326;51.116;6.900;2022-09-21T07:24:20;15.65;;;8.15;;
47603;SDS011;33326;51.116;6.900;2022-09-21T07:29:22;12.90;;;8.70;;
47603;SDS011;33326;51.116;6.900;2022-09-21T07:34:26;13.32;;;8.35;;
47603;SDS011;33326;51.116;6.900;2022-09-21T07:39:28;16.13;;;9.20;;
47603;SDS011;33326;51.116;6.900;2022-09-21T07:44:30;16.20;;;9.55;;
47603;SDS011;33326;51.116;6.900;2022-09-21T07:49:34;14.27;;;8.40;;
47603;SDS011;33326;51.116;6.900;2022-09-21T07:54:36;17.70;;;10.48;;
47603;SDS011;33326;51.116;6.900;2022-09-21T07:59:39;15.68;;;9.30;;
47603;SDS011;33326;51.116;6.900;2022-09-21T08:04:42;14.18;;;9.15;;
47603;SDS011;33326;51.116;6.900;2022-09-21T08:09:44;13.50;;;8.20;;
47603;SDS011;33326;51.116;6.900;2022-09-21T08:14:48;12.02;;;8.63;;
47603;SDS011;33326;51.116;6.900;2022-09-21T08:19:51;16.77;;;8.43;;
47603;SDS011;33326;51.116;6.900;2022-09-21T08:24:54;12.00;;;8.00;;
47603;SDS011;33326;51.116;6.900;2022-09-21T08:29:56;13.30;;;6.95;;
47603;SDS011;33326;51.116;6.900;2022-09-21T08:34:59;14.05;;;7.82;;
47603;SDS011;33326;51.116;6.900;2022-09-21T08:40:01;14.05;;;7.35;;
47603;SDS011;33326;51.116;6.900;2022-09-21T08:45:04;13.32;;;8.00;;
47603;SDS011;33326;51.116;6.900;2022-09-21T08:50:24;11.30;;;7.93;;
47603;SDS011;33326;51.116;6.900;2022-09-21T08:55:31;12.60;;;7.30;;
47603;SDS011;33326;51.116;6.900;2022-09-21T09:00:33;12.32;;;6.85;;
47603;SDS011;33326;51.116;6.900;2022-09-21T09:05:44;12.73;;;6.40;;
47603;SDS011;33326;51.116;6.900;2022-09-21T09:10:52;12.77;;;6.80;;
47603;SDS011;33326;51.116;6.900;2022-09-21T09:16:03;11.98;;;6.75;;
47603;SDS011;33326;51.116;6.900;2022-09-21T09:21:14;12.60;;;6.23;;
47603;SDS011;33326;51.116;6.900;2022-09-21T09:26:21;9.30;;;5.68;;
47603;SDS011;33326;51.116;6.900;2022-09-21T09:31:30;10.52;;;5.30;;
47603;SDS011;33326;51.116;6.900;2022-09-21T09:36:35;8.80;;;4.10;;
47603;SDS011;33326;51.116;6.900;2022-09-21T09:41:42;11.50;;;4.22;;
47603;SDS011;33326;51.116;6.900;2022-09-21T09:47:02;12.35;;;4.75;;
47603;SDS011;33326;51.116;6.900;2022-09-21T09:52:10;9.95;;;3.70;;
47603;SDS011;33326;51.116;6.900;2022-09-21T09:57:25;8.32;;;3.20;;
47603;SDS011;33326;51.116;6.900;2022-09-21T10:02:29;6.57;;;2.85;;
47603;SDS011;33326;51.116;6.900;2022-09-21T10:07:36;6.43;;;3.03;;
47603;SDS011;33326;51.116;6.900;2022-09-21T10:12:39;7.72;;;3.30;;
47603;SDS011;33326;51.116;6.900;2022-09-21T10:17:46;10.63;;;3.63;;
47603;SDS011;33326;51.116;6.900;2022-09-21T10:22:52;7.75;;;3.10;;
47603;SDS011;33326;51.116;6.900;2022-09-21T10:27:55;6.80;;;2.08;;
47603;SDS011;33326;51.116;6.900;2022-09-21T10:32:58;8.55;;;2.58;;
47603;SDS011;33326;51.116;6.900;2022-09-21T10:38:14;7.40;;;2.70;;
47603;SDS011;33326;51.116;6.900;2022-09-21T10:43:22;7.15;;;2.63;;
47603;SDS011;33326;51.116;6.900;2022-09-21T10:48:26;6.75;;;2.47;;
47603;SDS011;33326;51.116;6.900;2022-09-21T10:53:30;5.60;;;2.40;;
47603;SDS011;33326;51.116;6.900;2022-09-21T10:58:34;5.78;;;1.77;;
47603;SDS011;33326;51.116;6.900;2022-09-21T11:03:41;5.30;;;1.90;;
47603;SDS011;33326;51.116;6.900;2022-09-21T11:08:51;4.57;;;1.73;;
47603;SDS011;33326;51.116;6.900;2022-09-21T11:13:57;5.75;;;2.08;;
47603;SDS011;33326;51.116;6.900;2022-09-21T11:19:08;8.18;;;1.50;;
47603;SDS011;33326;51.116;6.900;2022-09-21T11:24:21;5.65;;;1.30;;
47603;SDS011;33326;51.116;6.900;2022-09-21T11:29:35;4.25;;;1.73;;
47603;SDS011;33326;51.116;6.900;2022-09-21T11:34:58;5.15;;;1.48;;
47603;SDS011;33326;51.116;6.900;2022-09-21T11:40:29;3.63;;;1.45;;
47603;SDS011;33326;51.116;6.900;2022-09-21T11:45:44;7.90;;;1.73;;
47603;SDS011;33326;51.116;6.900;2022-09-21T11:50:59;4.72;;;1.45;;
47603;SDS011;33326;51.116;6.900;2022-09-21T11:56:19;3.53;;;1.40;;
47603;SDS011;33326;51.116;6.900;2022-09-21T12:01:38;3.40;;;1.33;;
47603;SDS011;33326;51.116;6.900;2022-09-21T12:06:51;4.32;;;1.15;;
47603;SDS011;33326;51.116;6.900;2022-09-21T12:12:04;6.55;;;1.08;;
47603;SDS011;33326;51.116;6.900;2022-09-21T12:17:12;5.82;;;1.52;;
47603;SDS011;33326;51.116;6.900;2022-09-21T12:22:23;2.60;;;1.17;;
47603;SDS011;33326;51.116;6.900;2022-09-21T12:27:30;3.35;;;1.38;;
47603;SDS011;33326;51.116;6.900;2022-09-21T12:32:41;5.13;;;1.20;;
47603;SDS011;33326;51.116;6.900;2022-09-21T12:37:53;4.78;;;1.95;;
47603;SDS011;33326;51.116;6.900;2022-09-21T12:43:02;3.67;;;1.45;;
47603;SDS011;33326;51.116;6.900;2022-09-21T12:48:12;5.18;;;1.52;;
47603;SDS011;33326;51.116;6.900;2022-09-21T12:53:24;4.53;;;1.42;;
47603;SDS011;33326;51.116;6.900;2022-09-21T12:58:45;5.60;;;1.80;;
47603;SDS011;33326;51.116;6.900;2022-09-21T13:03:58;6.63;;;1.80;;
47603;SDS011;33326;51.116;6.900;2022-09-21T13:09:12;3.63;;;1.15;;
47603;SDS011;33326;51.116;6.900;2022-09-21T13:14:17;4.72;;;1.20;;
47603;SDS011;33326;51.116;6.900;2022-09-21T13:19:20;3.60;;;1.13;;
47603;SDS011;33326;51.116;6.900;2022-09-21T13:24:24;5.10;;;1.40;;
47603;SDS011;33326;51.116;6.900;2022-09-21T13:29:30;2.90;;;1.23;;
47603;SDS011;33326;51.116;6.900;2022-09-21T13:34:34;3.20;;;1.17;;
47603;SDS011;33326;51.116;6.900;2022-09-21T13:39:37;4.43;;;1.52;;
47603;SDS011;33326;51.116;6.900;2022-09-21T13:44:44;5.55;;;1.98;;
47603;SDS011;33326;51.116;6.900;2022-09-21T13:49:49;4.05;;;1.65;;
47603;SDS011;33326;51.116;6.900;2022-09-21T13:54:53;5.40;;;1.45;;
47603;SDS011;33326;51.116;6.900;2022-09-21T14:00:04;2.13;;;1.10;;
47603;SDS011;33326;51.116;6.900;2022-09-21T14:05:18;3.42;;;1.13;;
47603;SDS011;33326;51.116;6.900;2022-09-21T14:10:25;2.85;;;1.65;;
47603;SDS011;33326;51.116;6.900;2022-09-21T14:15:32;4.55;;;1.40;;
47603;SDS011;33326;51.116;6.900;2022-09-21T14:20:38;2.60;;;1.20;;
47603;SDS011;33326;51.116;6.900;2022-09-21T14:25:48;3.00;;;1.20;;
47603;SDS011;33326;51.116;6.900;2022-09-21T14:30:56;5.38;;;1.67;;
47603;SDS011;33326;51.116;6.900;2022-09-21T14:36:05;2.33;;;1.27;;
47603;SDS011;33326;51.116;6.900;2022-09-21T14:41:10;3.08;;;1.42;;
47603;SDS011;33326;51.116;6.900;2022-09-21T14:46:23;6.20;;;1.38;;
47603;SDS011;33326;51.116;6.900;2022-09-21T14:51:44;4.55;;;1.35;;
47603;SDS011;33326;51.116;6.900;2022-09-21T14:56:58;5.05;;;1.60;;
47603;SDS011;33326;51.116;6.900;2022-09-21T15:02:16;2.80;;;1.40;;
47603;SDS011;33326;51.116;6.900;2022-09-21T15:07:24;4.93;;;1.23;;
47603;SDS011;33326;51.116;6.900;2022-09-21T15:12:52;2.83;;;1.30;;
47603;SDS011;33326;51.116;6.900;2022-09-21T15:18:00;3.92;;;1.73;;
47603;SDS011;33326;51.116;6.900;2022-09-21T15:23:14;4.50;;;1.17;;
47603;SDS011;33326;51.116;6.900;2022-09-21T15:28:18;2.90;;;1.10;;
47603;SDS011;33326;51.116;6.900;2022-09-21T15:33:22;4.90;;;1.33;;
47603;SDS011;33326;51.116;6.900;2022-09-21T15:38:25;2.22;;;1.08;;
47603;SDS011;33326;51.116;6.900;2022-09-21T15:43:28;4.97;;;1.00;;
47603;SDS011;33326;51.116;6.900;2022-09-21T15:48:35;4.53;;;1.55;;
47603;SDS011;33326;51.116;6.900;2022-09-21T15:53:42;3.00;;;1.42;;
47603;SDS011;33326;51.116;6.900;2022-09-21T15:58:46;3.75;;;1.40;;
47603;SDS011;33326;51.116;6.900;2022-09-21T16:04:00;3.38;;;1.15;;
47603;SDS011;33326;51.116;6.900;2022-09-21T16:14:42;4.32;;;1.15;;
47603;SDS011;33326;51.116;6.900;2022-09-21T16:20:10;3.97;;;1.20;;
47603;SDS011;33326;51.116;6.900;2022-09-21T16:25:21;6.32;;;1.00;;
47603;SDS011;33326;51.116;6.900;2022-09-21T16:30:39;2.50;;;0.90;;
47603;SDS011;33326;51.116;6.900;2022-09-21T16:35:47;4.13;;;0.93;;
47603;SDS011;33326;51.116;6.900;2022-09-21T16:40:49;5.43;;;1.23;;
47603;SDS011;33326;51.116;6.900;2022-09-21T16:45:53;3.78;;;0.98;;
47603;SDS011;33326;51.116;6.900;2022-09-21T16:50:59;4.32;;;1.30;;
47603;SDS011;33326;51.116;6.900;2022-09-21T16:56:00;3.20;;;1.05;;
47603;SDS011;33326;51.116;6.900;2022-09-21T17:01:03;2.95;;;1.30;;
47603;SDS011;33326;51.116;6.900;2022-09-21T17:06:08;4.93;;;1.30;;
47603;SDS011;33326;51.116;6.900;2022-09-21T17:11:14;4.05;;;1.15;;
47603;SDS011;33326;51.116;6.900;2022-09-21T17:16:19;3.25;;;1.30;;
47603;SDS011;33326;51.116;6.900;2022-09-21T17:21:23;4.00;;;1.60;;
47603;SDS011;33326;51.116;6.900;2022-09-21T17:26:26;3.60;;;1.60;;
47603;SDS011;33326;51.116;6.900;2022-09-21T17:31:28;4.20;;;1.65;;
47603;SDS011;33326;51.116;6.900;2022-09-21T17:36:32;3.17;;;1.55;;
47603;SDS011;33326;51.116;6.900;2022-09-21T17:41:36;4.80;;;1.67;;
47603;SDS011;33326;51.116;6.900;2022-09-21T17:46:45;5.07;;;1.42;;
47603;SDS011;33326;51.116;6.900;2022-09-21T17:51:53;5.35;;;2.20;;
47603;SDS011;33326;51.116;6.900;2022-09-21T17:57:23;4.22;;;1.90;;
47603;SDS011;33326;51.116;6.900;2022-09-21T18:02:33;7.60;;;2.40;;
47603;SDS011;33326;51.116;6.900;2022-09-21T18:07:37;4.40;;;2.30;;
47603;SDS011;33326;51.116;6.900;2022-09-21T18:12:43;6.50;;;2.53;;
47603;SDS011;33326;51.116;6.900;2022-09-21T18:18:08;6.65;;;2.85;;
47603;SDS011;33326;51.116;6.900;2022-09-21T18:23:24;8.90;;;3.60;;
47603;SDS011;33326;51.116;6.900;2022-09-21T18:28:37;8.55;;;3.67;;
47603;SDS011;33326;51.116;6.900;2022-09-21T18:33:47;6.55;;;3.20;;
47603;SDS011;33326;51.116;6.900;2022-09-21T18:44:36;8.85;;;3.20;;
47603;SDS011;33326;51.116;6.900;2022-09-21T18:49:51;6.30;;;2.90;;
47603;SDS011;33326;51.116;6.900;2022-09-21T18:55:21;7.38;;;2.65;;
47603;SDS011;33326;51.116;6.900;2022-09-21T19:06:18;5.75;;;2.25;;
47603;SDS011;33326;51.116;6.900;2022-09-21T19:12:05;6.95;;;2.72;;
47603;SDS011;33326;51.116;6.900;2022-09-21T19:23:26;7.30;;;3.13;;
47603;SDS011;33326;51.116;6.900;2022-09-21T19:28:48;6.63;;;3.08;;
47603;SDS011;33326;51.116;6.900;2022-09-21T19:34:13;7.00;;;3.30;;
47603;SDS011;33326;51.116;6.900;2022-09-21T19:39:34;4.90;;;3.00;;
47603;SDS011;33326;51.116;6.900;2022-09-21T19:44:42;9.75;;;3.28;;
47603;SDS011;33326;51.116;6.900;2022-09-21T19:50:25;6.47;;;2.83;;
47603;SDS011;33326;51.116;6.900;2022-09-21T20:01:57;9.18;;;3.53;;
47603;SDS011;33326;51.116;6.900;2022-09-21T20:07:20;10.03;;;3.50;;
47603;SDS011;33326;51.116;6.900;2022-09-21T20:12:31;7.93;;;3.85;;
47603;SDS011;33326;51.116;6.900;2022-09-21T20:17:54;9.32;;;4.28;;
47603;SDS011;33326;51.116;6.900;2022-09-21T20:23:04;8.63;;;3.95;;
47603;SDS011;33326;51.116;6.900;2022-09-21T20:28:10;8.70;;;3.72;;
47603;SDS011;33326;51.116;6.900;2022-09-21T20:33:14;9.20;;;4.00;;
47603;SDS011;33326;51.116;6.900;2022-09-21T20:38:22;12.38;;;4.20;;
47603;SDS011;33326;51.116;6.900;2022-09-21T20:43:24;12.25;;;4.22;;
47603;SDS011;33326;51.116;6.900;2022-09-21T20:48:28;7.05;;;3.90;;
47603;SDS011;33326;51.116;6.900;2022-09-21T20:53:31;7.65;;;3.88;;
47603;SDS011;33326;51.116;6.900;2022-09-21T20:58:33;7.78;;;4.13;;
47603;SDS011;33326;51.116;6.900;2022-09-21T21:03:37;7.85;;;3.95;;
47603;SDS011;33326;51.116;6.900;2022-09-21T21:14:53;7.63;;;4.30;;
47603;SDS011;33326;51.116;6.900;2022-09-21T21:19:59;7.18;;;3.50;;
47603;SDS011;33326;51.116;6.900;2022-09-21T21:25:02;10.38;;;3.90;;
47603;SDS011;33326;51.116;6.900;2022-09-21T21:30:05;8.85;;;4.13;;
47603;SDS011;33326;51.116;6.900;2022-09-21T21:35:09;8.25;;;4.53;;
47603;SDS011;33326;51.116;6.900;2022-09-21T21:40:11;12.48;;;4.75;;
47603;SDS011;33326;51.116;6.900;2022-09-21T21:45:14;11.65;;;5.35;;
47603;SDS011;33326;51.116;6.900;2022-09-21T21:50:18;8.50;;;4.35;;
47603;SDS011;33326;51.116;6.900;2022-09-21T21:55:20;8.23;;;4.13;;
47603;SDS011;33326;51.116;6.900;2022-09-21T22:00:22;8.35;;;4.38;;
47603;SDS011;33326;51.116;6.900;2022-09-21T22:05:25;8.80;;;4.65;;
47603;SDS011;33326;51.116;6.900;2022-09-21T22:10:27;6.78;;;4.60;;
47603;SDS011;33326;51.116;6.900;2022-09-21T22:15:29;7.72;;;4.43;;
47603;SDS011;33326;51.116;6.900;2022-09-21T22:20:32;9.25;;;4.90;;
47603;SDS011;33326;51.116;6.900;2022-09-21T22:25:33;8.73;;;4.93;;
47603;SDS011;33326;51.116;6.900;2022-09-21T22:30:35;12.40;;;4.68;;
47603;SDS011;33326;51.116;6.900;2022-09-21T22:35:39;9.40;;;4.78;;
47603;SDS011;33326;51.116;6.900;2022-09-21T22:40:41;9.93;;;5.30;;
47603;SDS011;33326;51.116;6.900;2022-09-21T22:45:44;7.85;;;4.60;;
47603;SDS011;33326;51.116;6.900;2022-09-21T22:50:47;9.98;;;5.15;;
47603;SDS011;33326;51.116;6.900;2022-09-21T22:55:59;11.40;;;4.63;;
47603;SDS011;33326;51.116;6.900;2022-09-21T23:01:04;13.63;;;4.95;;
47603;SDS011;33326;51.116;6.900;2022-09-21T23:06:09;9.40;;;4.80;;
47603;SDS011;33326;51.116;6.900;2022-09-21T23:11:13;8.95;;;5.10;;
47603;SDS011;33326;51.116;6.900;2022-09-21T23:16:17;7.30;;;4.75;;
47603;SDS011;33326;51.116;6.900;2022-09-21T23:21:21;13.02;;;4.85;;
47603;SDS011;33326;51.116;6.900;2022-09-21T23:26:24;9.82;;;4.60;;
47603;SDS011;33326;51.116;6.900;2022-09-21T23:31:27;5.97;;;4.13;;
47603;SDS011;33326;51.116;6.900;2022-09-21T23:36:32;7.55;;;4.38;;
47603;SDS011;33326;51.116;6.900;2022-09-21T23:41:34;7.28;;;3.85;;
47603;SDS011;33326;51.116;6.900;2022-09-21T23:46:37;7.25;;;4.15;;
47603;SDS011;33326;51.116;6.900;2022-09-21T23:51:40;11.68;;;4.72;;
47603;SDS011;33326;51.116;6.900;2022-09-21T23:56:42;7.38;;;4.20;;
